createdAt,value
2018-04-13T00:01:27.076Z,65.30
2018-04-13T00:03:54.544Z,65.84
2018-04-13T00:06:21.994Z,66.11
2018-04-13T00:08:49.492Z,66.19
2018-04-13T00:11:16.972Z,66.56
2018-04-13T00:13:44.439Z,66.70
2018-04-13T00:16:11.897Z,67.06
2018-04-13T00:18:39.372Z,67.37
2018-04-13T00:21:06.971Z,67.56
2018-04-13T00:23:34.456Z,67.91
2018-04-13T00:26:03.591Z,68.21
2018-04-13T00:28:31.117Z,68.29
2018-04-13T00:30:58.609Z,68.51
2018-04-13T00:33:26.138Z,68.72
2018-04-13T00:35:53.592Z,68.68
2018-04-13T00:38:21.083Z,69.45
2018-04-13T00:40:48.568Z,69.24
2018-04-13T00:43:16.062Z,69.33
2018-04-13T00:45:43.526Z,69.35
2018-04-13T00:48:11.045Z,69.25
2018-04-13T00:50:38.820Z,68.93
2018-04-13T00:53:18.081Z,68.86
2018-04-13T00:55:45.532Z,68.91
2018-04-13T00:58:13.019Z,69.14
2018-04-13T01:00:40.488Z,69.28
2018-04-13T01:03:07.952Z,69.04
2018-04-13T01:05:35.445Z,68.86
2018-04-13T01:08:03.034Z,68.76
2018-04-13T01:10:30.534Z,68.77
2018-04-13T01:12:58.001Z,68.68
2018-04-13T01:15:25.475Z,68.39
2018-04-13T01:17:52.942Z,68.29
2018-04-13T01:20:20.442Z,68.34
2018-04-13T01:22:47.898Z,68.51
2018-04-13T01:25:15.383Z,68.62
2018-04-13T01:27:42.874Z,68.61
2018-04-13T01:30:10.349Z,68.60
2018-04-13T01:32:37.821Z,68.68
2018-04-13T01:35:05.297Z,68.95
2018-04-13T01:37:32.784Z,68.89
2018-04-13T01:40:00.280Z,68.99
2018-04-13T01:42:27.767Z,69.31
2018-04-13T01:44:55.260Z,69.60
2018-04-13T01:47:22.738Z,69.65
2018-04-13T01:49:50.220Z,69.96
2018-04-13T01:52:17.706Z,70.53
2018-04-13T01:54:45.192Z,70.44
2018-04-13T01:57:12.677Z,70.51
2018-04-13T01:59:40.439Z,70.56
2018-04-13T02:02:07.996Z,70.14
2018-04-13T02:04:35.507Z,70.37
2018-04-13T02:07:03.099Z,70.33
2018-04-13T02:09:30.594Z,70.41
2018-04-13T02:11:58.102Z,70.24
2018-04-13T02:14:25.580Z,70.18
2018-04-13T02:16:53.082Z,70.02
2018-04-13T02:19:20.573Z,70.27
2018-04-13T02:21:48.047Z,70.20
2018-04-13T02:24:15.592Z,70.05
2018-04-13T02:26:43.209Z,70.19
2018-04-13T02:29:11.412Z,69.91
2018-04-13T02:31:38.885Z,70.10
2018-04-13T02:34:06.584Z,70.09
2018-04-13T02:36:34.053Z,69.99
2018-04-13T02:39:01.533Z,69.70
2018-04-13T02:41:28.990Z,69.75
2018-04-13T02:43:56.473Z,69.68
2018-04-13T02:46:23.953Z,70.18
2018-04-13T02:48:51.497Z,69.87
2018-04-13T02:51:18.975Z,69.90
2018-04-13T02:53:46.438Z,70.17
2018-04-13T02:56:13.966Z,70.39
2018-04-13T02:58:41.509Z,71.17
2018-04-13T03:01:08.985Z,71.23
2018-04-13T03:03:36.442Z,71.25
2018-04-13T03:06:03.922Z,71.11
2018-04-13T03:08:31.400Z,71.06
2018-04-13T03:10:58.962Z,71.16
2018-04-13T03:13:26.505Z,71.54
2018-04-13T03:15:53.995Z,71.74
2018-04-13T03:18:21.446Z,71.91
2018-04-13T03:20:48.913Z,72.46
2018-04-13T03:23:16.381Z,72.47
2018-04-13T03:25:43.853Z,72.49
2018-04-13T03:28:11.322Z,72.51
2018-04-13T03:30:38.801Z,72.35
2018-04-13T03:33:06.276Z,72.46
2018-04-13T03:35:33.756Z,72.72
2018-04-13T03:38:01.275Z,73.05
2018-04-13T03:40:28.726Z,73.14
2018-04-13T03:42:56.203Z,73.13
2018-04-13T03:45:23.662Z,73.05
2018-04-13T03:47:51.121Z,73.14
2018-04-13T03:50:18.590Z,73.13
2018-04-13T03:52:46.062Z,73.06
2018-04-13T03:55:13.536Z,73.02
2018-04-13T03:57:41.003Z,73.02
2018-04-13T04:00:08.471Z,72.88
2018-04-13T04:02:35.951Z,72.55
2018-04-13T04:05:03.439Z,72.41
2018-04-13T04:07:30.953Z,72.23
2018-04-13T04:09:58.450Z,72.29
2018-04-13T04:12:25.965Z,71.92
2018-04-13T04:14:53.433Z,71.68
2018-04-13T04:17:20.912Z,71.54
2018-04-13T04:20:00.230Z,71.40
2018-04-13T04:22:39.676Z,71.27
2018-04-13T04:28:30.074Z,70.34
2018-04-13T04:30:57.579Z,70.11
2018-04-13T04:33:25.073Z,71.21
2018-04-13T04:35:52.563Z,71.47
2018-04-13T04:38:20.088Z,71.38
2018-04-13T04:40:47.554Z,71.50
2018-04-13T04:43:15.029Z,71.10
2018-04-13T04:45:42.510Z,70.52
2018-04-13T04:48:10.053Z,70.35
2018-04-13T04:50:37.543Z,70.21
2018-04-13T04:53:05.132Z,70.87
2018-04-13T04:55:32.615Z,70.87
2018-04-13T04:58:00.077Z,71.25
2018-04-13T05:00:27.694Z,71.70
2018-04-13T05:02:55.161Z,69.91
2018-04-13T05:05:22.625Z,69.91
2018-04-13T05:07:50.104Z,69.98
2018-04-13T05:10:17.582Z,70.15
2018-04-13T05:12:45.077Z,69.91
2018-04-13T05:15:12.571Z,70.06
2018-04-13T05:17:40.200Z,70.19
2018-04-13T05:20:07.802Z,70.51
2018-04-13T05:22:35.296Z,70.12
2018-04-13T05:25:02.779Z,69.68
2018-04-13T05:27:30.248Z,69.31
2018-04-13T05:29:57.718Z,68.35
2018-04-13T05:32:25.193Z,68.03
2018-04-13T05:34:52.689Z,67.62
2018-04-13T05:37:20.182Z,67.18
2018-04-13T05:39:47.661Z,67.29
2018-04-13T05:42:15.119Z,66.53
2018-04-13T05:44:42.591Z,66.09
2018-04-13T05:47:10.180Z,66.38
2018-04-13T05:49:37.831Z,66.49
2018-04-13T05:52:05.304Z,66.17
2018-04-13T05:54:33.010Z,66.06
2018-04-13T05:57:00.762Z,65.46
2018-04-13T05:59:28.397Z,66.03
2018-04-13T06:01:56.012Z,66.28
2018-04-13T06:04:23.750Z,66.42
2018-04-13T06:06:51.357Z,66.49
2018-04-13T06:09:18.886Z,66.43
2018-04-13T06:11:46.395Z,66.72
2018-04-13T06:14:13.998Z,66.69
2018-04-13T06:16:41.483Z,66.70
2018-04-13T06:19:08.981Z,66.38
2018-04-13T06:21:42.305Z,66.02
2018-04-13T06:24:09.867Z,65.83
2018-04-13T06:26:37.365Z,65.88
2018-04-13T06:29:04.842Z,64.46
2018-04-13T06:31:32.358Z,64.10
2018-04-13T06:34:00.054Z,63.45
2018-04-13T06:36:27.589Z,62.72
2018-04-13T06:38:55.086Z,62.38
2018-04-13T06:41:22.713Z,60.80
2018-04-13T06:43:50.201Z,60.27
2018-04-13T06:46:17.760Z,61.22
2018-04-13T06:48:45.438Z,61.23
2018-04-13T06:51:13.055Z,61.18
2018-04-13T06:53:40.655Z,61.53
2018-04-13T06:56:08.137Z,61.00
2018-04-13T06:58:35.667Z,61.54
2018-04-13T07:01:03.196Z,61.52
2018-04-13T07:03:30.685Z,61.22
2018-04-13T07:05:58.348Z,60.16
2018-04-13T07:08:25.899Z,60.26
2018-04-13T07:10:53.374Z,60.14
2018-04-13T07:13:20.870Z,60.09
2018-04-13T07:15:48.520Z,60.72
2018-04-13T07:18:16.071Z,61.44
2018-04-13T07:20:43.610Z,60.89
2018-04-13T07:23:11.144Z,59.89
2018-04-13T07:25:38.623Z,59.79
2018-04-13T07:28:06.106Z,59.78
2018-04-13T07:30:33.749Z,59.26
2018-04-13T07:33:01.303Z,59.57
2018-04-13T07:35:28.791Z,59.51
2018-04-13T07:37:56.301Z,59.71
2018-04-13T07:40:23.904Z,60.42
2018-04-13T07:42:51.372Z,58.57
2018-04-13T07:45:18.886Z,58.45
2018-04-13T07:47:46.356Z,58.24
2018-04-13T07:50:14.214Z,58.82
2018-04-13T07:52:41.435Z,58.37
2018-04-13T07:55:08.961Z,58.61
2018-04-13T07:57:36.517Z,57.94
2018-04-13T08:00:04.056Z,58.27
2018-04-13T08:02:31.535Z,58.13
2018-04-13T08:04:59.048Z,57.75
2018-04-13T08:07:26.537Z,58.25
2018-04-13T08:09:54.065Z,57.63
2018-04-13T08:12:21.540Z,58.01
2018-04-13T08:14:49.048Z,57.90
2018-04-13T08:17:16.529Z,57.66
2018-04-13T08:19:44.066Z,58.27
2018-04-13T08:22:11.733Z,57.57
2018-04-13T08:24:39.311Z,57.11
2018-04-13T08:27:06.811Z,56.82
2018-04-13T08:29:34.317Z,57.31
2018-04-13T08:32:01.849Z,56.61
2018-04-13T08:34:29.344Z,55.95
2018-04-13T08:36:56.822Z,56.36
2018-04-13T08:39:24.315Z,55.74
2018-04-13T08:41:51.954Z,55.99
2018-04-13T08:44:19.491Z,55.08
2018-04-13T08:46:46.998Z,55.24
2018-04-13T08:49:14.704Z,55.74
2018-04-13T08:51:42.038Z,56.59
2018-04-13T08:54:09.539Z,56.91
2018-04-13T08:56:37.016Z,56.43
2018-04-13T08:59:04.490Z,57.30
2018-04-13T09:01:31.961Z,57.38
2018-04-13T09:03:59.454Z,56.83
2018-04-13T09:06:26.980Z,56.80
2018-04-13T09:08:54.498Z,56.68
2018-04-13T09:11:22.004Z,56.52
2018-04-13T09:13:49.495Z,56.64
2018-04-13T09:16:16.996Z,57.71
2018-04-13T09:18:44.458Z,57.58
2018-04-13T09:21:11.932Z,57.08
2018-04-13T09:23:39.406Z,57.36
2018-04-13T09:26:06.873Z,58.23
2018-04-13T09:28:34.381Z,57.07
2018-04-13T09:31:01.892Z,57.09
2018-04-13T09:33:29.388Z,57.08
2018-04-13T09:35:56.867Z,56.66
2018-04-13T09:38:24.341Z,56.91
2018-04-13T09:40:51.845Z,57.04
2018-04-13T09:43:19.364Z,56.83
2018-04-13T09:45:46.864Z,57.15
2018-04-13T09:48:14.332Z,56.82
2018-04-13T09:50:41.876Z,56.64
2018-04-13T09:53:09.360Z,57.52
2018-04-13T09:55:36.824Z,59.98
2018-04-13T09:58:04.321Z,62.26
2018-04-13T10:00:31.948Z,62.33
2018-04-13T10:03:03.261Z,62.60
2018-04-13T10:05:30.791Z,61.75
2018-04-13T10:07:58.549Z,61.85
2018-04-13T10:10:26.141Z,61.77
2018-04-13T10:12:53.615Z,61.13
2018-04-13T10:15:21.118Z,61.08
2018-04-13T10:17:48.631Z,61.65
2018-04-13T10:20:16.121Z,62.37
2018-04-13T10:22:43.594Z,64.27
2018-04-13T10:25:11.098Z,66.69
2018-04-13T10:27:38.618Z,70.27
2018-04-13T10:30:06.153Z,76.77
2018-04-13T10:32:33.702Z,81.53
2018-04-13T10:35:01.240Z,85.46
2018-04-13T10:37:28.719Z,83.50
2018-04-13T10:39:56.186Z,79.41
2018-04-13T10:42:23.792Z,81.33
2018-04-13T10:44:51.294Z,80.81
2018-04-13T10:47:18.813Z,80.89
2018-04-13T10:49:46.323Z,83.41
2018-04-13T10:52:13.821Z,82.77
2018-04-13T10:54:41.505Z,84.57
2018-04-13T10:57:08.987Z,84.24
2018-04-13T10:59:36.456Z,84.53
2018-04-13T11:02:06.188Z,86.06
2018-04-13T11:04:33.761Z,85.53
2018-04-13T11:07:01.552Z,86.00
2018-04-13T11:09:29.180Z,85.15
2018-04-13T11:11:57.011Z,86.33
2018-04-13T11:14:24.521Z,86.26
2018-04-13T11:16:52.008Z,86.32
2018-04-13T11:19:20.092Z,87.89
2018-04-13T11:21:47.584Z,88.67
2018-04-13T11:24:15.059Z,88.65
2018-04-13T11:26:42.528Z,88.92
2018-04-13T11:29:10.021Z,90.62
2018-04-13T11:31:37.495Z,90.60
2018-04-13T11:34:05.121Z,90.33
2018-04-13T11:36:32.629Z,90.25
2018-04-13T11:39:00.118Z,90.31
2018-04-13T11:44:15.914Z,90.24
2018-04-13T11:46:43.403Z,89.26
2018-04-13T11:49:10.886Z,89.66
2018-04-13T11:51:38.435Z,89.30
2018-04-13T11:54:05.908Z,88.39
2018-04-13T11:56:33.400Z,88.90
2018-04-13T11:59:00.877Z,88.46
2018-04-13T12:01:28.372Z,86.80
2018-04-13T12:03:55.863Z,86.36
2018-04-13T12:06:23.330Z,85.23
2018-04-13T12:08:50.817Z,85.30
2018-04-13T12:11:18.530Z,84.22
2018-04-13T12:13:46.020Z,85.97
2018-04-13T12:16:13.500Z,87.16
2018-04-13T12:18:41.114Z,84.50
2018-04-13T12:21:08.607Z,81.99
2018-04-13T12:23:36.109Z,84.34
2018-04-13T12:26:03.593Z,84.13
2018-04-13T12:28:31.143Z,84.26
2018-04-13T12:30:58.639Z,83.37
2018-04-13T12:33:26.247Z,81.94
2018-04-13T12:35:53.740Z,83.29
2018-04-13T12:38:21.251Z,83.01
2018-04-13T12:40:48.761Z,82.80
2018-04-13T12:43:16.222Z,82.37
2018-04-13T12:46:00.185Z,81.00
2018-04-13T12:48:27.773Z,80.26
2018-04-13T12:50:55.340Z,80.82
2018-04-13T12:53:22.864Z,80.87
2018-04-13T12:55:50.336Z,81.06
2018-04-13T12:58:17.794Z,78.88
2018-04-13T13:00:45.314Z,81.84
2018-04-13T13:03:12.787Z,79.46
2018-04-13T13:05:40.305Z,80.86
2018-04-13T13:08:07.778Z,79.09
2018-04-13T13:10:35.288Z,76.57
2018-04-13T13:13:02.789Z,79.06
2018-04-13T13:15:30.340Z,79.06
2018-04-13T13:17:57.850Z,78.19
2018-04-13T13:20:25.323Z,78.78
2018-04-13T13:22:52.838Z,79.79
2018-04-13T13:25:20.305Z,79.56
2018-04-13T13:27:47.856Z,77.02
2018-04-13T13:30:15.417Z,77.55
2018-04-13T13:32:42.904Z,76.65
2018-04-13T13:35:10.459Z,77.26
2018-04-13T13:37:37.924Z,75.42
2018-04-13T13:40:05.597Z,77.83
2018-04-13T13:42:33.103Z,76.01
2018-04-13T13:45:01.503Z,72.07
2018-04-13T13:47:28.997Z,74.99
2018-04-13T13:49:56.559Z,75.98
2018-04-13T13:52:24.052Z,75.51
2018-04-13T13:54:51.539Z,73.93
2018-04-13T13:57:19.016Z,73.35
2018-04-13T13:59:46.492Z,74.17
2018-04-13T14:02:13.977Z,75.22
2018-04-13T14:04:41.694Z,73.54
2018-04-13T14:07:09.174Z,75.03
2018-04-13T14:09:36.633Z,73.50
2018-04-13T14:12:04.118Z,75.65
2018-04-13T14:14:31.879Z,74.82
2018-04-13T14:16:59.342Z,72.02
2018-04-13T14:19:26.829Z,72.46
2018-04-13T14:21:54.287Z,72.63
2018-04-13T14:24:21.854Z,71.98
2018-04-13T14:26:49.345Z,72.15
2018-04-13T14:29:16.812Z,71.78
2018-04-13T14:31:44.373Z,71.67
2018-04-13T14:34:11.947Z,72.30
2018-04-13T14:36:39.449Z,71.90
2018-04-13T14:39:07.073Z,73.84
2018-04-13T14:41:34.553Z,72.48
2018-04-13T14:44:02.050Z,74.05
2018-04-13T14:46:29.540Z,73.76
2018-04-13T14:48:57.025Z,73.01
2018-04-13T14:51:24.647Z,71.92
2018-04-13T14:53:52.221Z,72.13
2018-04-13T14:56:19.726Z,70.72
2018-04-13T14:58:47.247Z,71.75
2018-04-13T15:01:14.737Z,73.09
2018-04-13T15:03:42.246Z,71.43
2018-04-13T15:06:13.248Z,71.72
2018-04-13T15:08:40.728Z,72.58
2018-04-13T15:11:08.239Z,73.91
2018-04-13T15:13:35.722Z,72.17
2018-04-13T15:16:05.008Z,70.95
2018-04-13T15:21:33.122Z,72.31
2018-04-13T15:24:00.614Z,68.46
2018-04-13T15:26:28.216Z,68.00
2018-04-13T15:28:55.747Z,66.47
2018-04-13T15:31:23.230Z,65.52
2018-04-13T15:33:50.746Z,66.14
2018-04-13T15:36:18.232Z,67.45
2018-04-13T15:38:45.755Z,65.49
2018-04-13T15:41:30.271Z,66.74
2018-04-13T15:43:57.741Z,64.57
2018-04-13T15:46:25.331Z,65.84
2018-04-13T15:48:52.810Z,66.32
2018-04-13T15:51:20.292Z,66.72
2018-04-13T15:53:47.766Z,67.25
2018-04-13T15:56:17.034Z,66.58
2018-04-13T15:58:44.619Z,67.79
2018-04-13T16:01:12.126Z,65.76
2018-04-13T16:03:39.780Z,65.01
2018-04-13T16:06:07.285Z,64.76
2018-04-13T16:08:34.933Z,63.62
2018-04-13T16:11:02.413Z,60.38
2018-04-13T16:13:29.900Z,62.10
2018-04-13T16:15:57.417Z,60.78
2018-04-13T16:18:24.907Z,59.02
2018-04-13T16:20:52.388Z,58.62
2018-04-13T16:23:19.911Z,57.40
2018-04-13T16:25:47.400Z,54.64
2018-04-13T16:28:14.891Z,54.10
2018-04-13T16:30:42.381Z,53.89
2018-04-13T16:33:09.849Z,56.62
2018-04-13T16:35:37.362Z,54.59
2018-04-13T16:38:04.872Z,56.34
2018-04-13T16:40:32.428Z,55.43
2018-04-13T16:42:59.924Z,54.22
2018-04-13T16:45:27.396Z,54.65
2018-04-13T16:47:54.900Z,55.58
2018-04-13T16:50:22.388Z,55.67
2018-04-13T16:52:49.905Z,55.46
2018-04-13T16:55:17.406Z,55.12
2018-04-13T16:57:46.963Z,54.48
2018-04-13T17:00:14.425Z,55.37
2018-04-13T17:02:41.961Z,55.56
2018-04-13T17:05:09.434Z,57.19
2018-04-13T17:07:36.988Z,58.21
2018-04-13T17:10:07.557Z,58.68
2018-04-13T17:12:35.109Z,59.44
2018-04-13T17:15:02.700Z,60.39
2018-04-13T17:17:30.208Z,61.41
2018-04-13T17:19:57.681Z,61.65
2018-04-13T17:22:25.169Z,62.52
2018-04-13T17:24:52.643Z,63.29
2018-04-13T17:27:21.109Z,63.23
2018-04-13T17:29:48.673Z,64.77
2018-04-13T17:32:16.146Z,65.65
2018-04-13T17:34:43.702Z,66.69
2018-04-13T17:37:11.227Z,67.26
2018-04-13T17:39:38.766Z,67.76
2018-04-13T17:45:02.345Z,67.91
2018-04-13T17:47:34.003Z,68.98
2018-04-13T17:50:01.911Z,68.62
2018-04-13T17:52:29.541Z,69.78
2018-04-13T17:54:57.135Z,70.76
2018-04-13T17:57:24.679Z,71.28
2018-04-13T17:59:52.227Z,71.22
2018-04-13T18:02:19.735Z,71.51
2018-04-13T18:04:50.022Z,72.00
2018-04-13T18:07:17.667Z,72.35
2018-04-13T18:10:03.991Z,72.69
2018-04-13T18:12:31.869Z,73.83
2018-04-13T18:14:59.342Z,73.38
2018-04-13T18:17:29.935Z,73.33
2018-04-13T18:19:57.456Z,74.18
2018-04-13T18:22:24.920Z,75.00
2018-04-13T18:24:52.508Z,74.47
2018-04-13T18:27:20.081Z,75.19
2018-04-13T18:29:47.681Z,75.37
2018-04-13T18:32:20.086Z,76.24
2018-04-13T18:34:49.225Z,75.50
2018-04-13T18:37:24.273Z,75.85
2018-04-13T18:39:51.779Z,75.78
2018-04-13T18:42:20.034Z,75.28
2018-04-13T18:44:47.844Z,76.35
2018-04-13T18:47:16.493Z,76.47
2018-04-13T18:49:50.007Z,75.95
2018-04-13T18:52:17.938Z,75.78
2018-04-13T18:54:54.445Z,76.43
2018-04-13T18:57:22.065Z,75.88
2018-04-13T18:59:56.163Z,76.47
2018-04-13T19:02:33.104Z,75.77
2018-04-13T19:05:00.874Z,76.93
2018-04-13T19:07:28.679Z,76.06
2018-04-13T19:09:56.249Z,76.91
2018-04-13T19:12:23.775Z,76.13
2018-04-13T19:14:51.241Z,76.56
2018-04-13T19:17:21.710Z,76.33
2018-04-13T19:19:51.518Z,76.22
2018-04-13T19:22:19.032Z,76.91
2018-04-13T19:24:53.446Z,76.92
2018-04-13T19:27:22.575Z,77.07
2018-04-13T19:29:50.083Z,76.87
2018-04-13T19:32:17.693Z,77.68
2018-04-13T19:34:45.194Z,77.18
2018-04-13T19:37:12.783Z,76.84
2018-04-13T19:39:40.265Z,77.40
2018-04-13T19:42:09.869Z,76.37
2018-04-13T19:44:37.432Z,76.52
2018-04-13T19:47:04.923Z,76.90
2018-04-13T19:49:32.433Z,76.70
2018-04-13T19:51:59.937Z,76.88
2018-04-13T19:54:27.695Z,78.47
2018-04-13T19:56:55.175Z,78.19
2018-04-13T19:59:22.756Z,77.90
2018-04-13T20:01:50.271Z,76.65
2018-04-13T20:04:17.821Z,76.69
2018-04-13T20:06:45.333Z,77.84
2018-04-13T20:09:12.885Z,76.59
2018-04-13T20:11:40.512Z,76.13
2018-04-13T20:14:07.999Z,76.03
2018-04-13T20:16:35.506Z,76.28
2018-04-13T20:19:02.985Z,76.04
2018-04-13T20:21:30.476Z,75.57
2018-04-13T20:23:58.083Z,76.11
2018-04-13T20:26:25.565Z,76.26
2018-04-13T20:28:53.069Z,76.57
2018-04-13T20:31:20.557Z,79.77
2018-04-13T20:33:48.193Z,75.55
2018-04-13T20:36:15.689Z,77.99
2018-04-13T20:38:43.186Z,75.25
2018-04-13T20:41:10.668Z,77.19
2018-04-13T20:43:38.169Z,74.80
2018-04-13T20:46:05.739Z,74.60
2018-04-13T20:48:33.233Z,75.29
2018-04-13T20:51:00.790Z,74.56
2018-04-13T20:53:28.287Z,74.75
2018-04-13T20:55:56.007Z,74.83
2018-04-13T20:58:23.617Z,76.98
2018-04-13T21:00:51.118Z,75.48
2018-04-13T21:03:18.602Z,76.11
2018-04-13T21:05:46.098Z,75.98
2018-04-13T21:08:15.483Z,76.77
2018-04-13T21:10:42.984Z,76.55
2018-04-13T21:13:10.474Z,77.18
2018-04-13T21:15:37.986Z,76.74
2018-04-13T21:18:05.478Z,78.20
2018-04-13T21:20:32.968Z,76.68
2018-04-13T21:23:00.446Z,76.99
2018-04-13T21:25:28.021Z,76.76
2018-04-13T21:27:55.492Z,77.18
2018-04-13T21:30:23.038Z,76.94
2018-04-13T21:32:50.540Z,77.22
2018-04-13T21:35:18.068Z,77.24
2018-04-13T21:37:45.553Z,77.33
2018-04-13T21:40:13.025Z,77.30
2018-04-13T21:42:40.501Z,77.37
2018-04-13T21:45:08.106Z,77.43
2018-04-13T21:47:35.572Z,77.00
2018-04-13T21:50:03.072Z,77.45
2018-04-13T21:52:30.625Z,78.00
2018-04-13T21:54:58.093Z,77.98
2018-04-13T21:57:25.600Z,78.08
2018-04-13T21:59:53.138Z,78.51
2018-04-13T22:02:20.658Z,78.57
2018-04-13T22:04:48.129Z,78.69
2018-04-13T22:07:15.613Z,78.74
2018-04-13T22:09:43.087Z,78.90
2018-04-13T22:12:22.385Z,78.75
2018-04-13T22:14:54.865Z,79.06
2018-04-13T22:17:22.364Z,78.94
2018-04-13T22:19:50.979Z,79.12
2018-04-13T22:22:18.472Z,79.54
2018-04-13T22:24:46.042Z,78.99
2018-04-13T22:27:13.646Z,79.21
2018-04-13T22:29:41.146Z,79.12
2018-04-13T22:32:08.645Z,78.96
2018-04-13T22:34:36.140Z,78.65
2018-04-13T22:37:03.616Z,79.07
2018-04-13T22:39:31.105Z,78.94
2018-04-13T22:41:58.607Z,79.06
2018-04-13T22:44:26.137Z,78.67
2018-04-13T22:46:53.661Z,78.85
2018-04-13T22:49:21.141Z,79.03
2018-04-13T22:51:48.771Z,79.07
2018-04-13T22:54:16.249Z,79.36
2018-04-13T22:56:43.746Z,79.34
2018-04-13T22:59:11.238Z,79.49
2018-04-13T23:01:39.507Z,79.55
2018-04-13T23:04:07.000Z,79.57
2018-04-13T23:06:34.458Z,79.34
2018-04-13T23:09:01.938Z,79.36
2018-04-13T23:11:29.451Z,79.38
2018-04-13T23:13:56.943Z,79.34
2018-04-13T23:16:24.448Z,79.97
2018-04-13T23:18:51.918Z,79.86
2018-04-13T23:21:19.395Z,79.83
2018-04-13T23:23:46.879Z,79.80
2018-04-13T23:26:14.457Z,79.20
2018-04-13T23:28:41.932Z,79.15
2018-04-13T23:31:09.424Z,78.90
2018-04-13T23:33:36.932Z,78.96
2018-04-13T23:36:04.457Z,79.08
2018-04-13T23:38:31.959Z,78.98
2018-04-13T23:40:59.427Z,78.98
2018-04-13T23:43:26.901Z,78.84
2018-04-13T23:45:54.376Z,79.32
2018-04-13T23:48:21.903Z,79.34
2018-04-13T23:50:49.400Z,79.00
2018-04-13T23:53:16.886Z,79.17
2018-04-13T23:55:44.365Z,78.72
2018-04-13T23:58:11.864Z,78.56
